sensor_id;sensor_type;location;lat;lon;timestamp;pressure;altitude;pressure_sealevel;temperature;humidity
39435;BME280;66825;51.880;-0.518;2023-02-15T00:01:40;101696.06;;;15.44;40.50
39435;BME280;66825;51.880;-0.518;2023-02-15T00:04:06;101687.09;;;15.43;40.63
39435;BME280;66825;51.880;-0.518;2023-02-15T00:06:33;101693.59;;;15.42;40.42
39435;BME280;66825;51.880;-0.518;2023-02-15T00:08:59;101685.47;;;15.42;40.33
39435;BME280;66825;51.880;-0.518;2023-02-15T00:11:25;101687.38;;;15.42;40.47
39435;BME280;66825;51.880;-0.518;2023-02-15T00:16:34;101624.81;;;15.09;40.57
39435;BME280;66825;51.880;-0.518;2023-02-15T00:18:59;101661.78;;;15.37;40.53
39435;BME280;66825;51.880;-0.518;2023-02-15T00:21:28;101620.22;;;15.09;40.67
39435;BME280;66825;51.880;-0.518;2023-02-15T00:23:58;101628.72;;;15.18;40.56
39435;BME280;66825;51.880;-0.518;2023-02-15T00:26:24;101646.81;;;15.35;40.40
39435;BME280;66825;51.880;-0.518;2023-02-15T00:28:50;101625.25;;;15.23;40.54
39435;BME280;66825;51.880;-0.518;2023-02-15T00:31:16;101622.50;;;15.18;40.50
39435;BME280;66825;51.880;-0.518;2023-02-15T00:33:42;101638.09;;;15.33;40.53
39435;BME280;66825;51.880;-0.518;2023-02-15T00:36:09;101636.22;;;15.33;40.50
39435;BME280;66825;51.880;-0.518;2023-02-15T00:38:35;101634.59;;;15.32;40.51
39435;BME280;66825;51.880;-0.518;2023-02-15T00:41:03;101626.69;;;15.31;40.47
39435;BME280;66825;51.880;-0.518;2023-02-15T00:43:30;101632.94;;;15.31;40.35
39435;BME280;66825;51.880;-0.518;2023-02-15T00:45:56;101624.22;;;15.29;40.70
39435;BME280;66825;51.880;-0.518;2023-02-15T00:48:22;101617.69;;;15.25;40.52
39435;BME280;66825;51.880;-0.518;2023-02-15T00:50:56;101578.63;;;15.04;40.42
39435;BME280;66825;51.880;-0.518;2023-02-15T00:53:23;101610.59;;;15.24;40.43
39435;BME280;66825;51.880;-0.518;2023-02-15T00:55:49;101602.94;;;15.21;40.56
39435;BME280;66825;51.880;-0.518;2023-02-15T00:58:15;101511.13;;;14.63;40.66
39435;BME280;66825;51.880;-0.518;2023-02-15T01:00:43;101622.84;;;15.27;40.42
39435;BME280;66825;51.880;-0.518;2023-02-15T01:03:09;101605.75;;;15.26;40.39
39435;BME280;66825;51.880;-0.518;2023-02-15T01:05:35;101614.13;;;15.24;40.46
39435;BME280;66825;51.880;-0.518;2023-02-15T01:08:01;101602.47;;;15.24;40.28
39435;BME280;66825;51.880;-0.518;2023-02-15T01:10:27;101603.25;;;15.24;40.32
39435;BME280;66825;51.880;-0.518;2023-02-15T01:12:53;101602.47;;;15.24;40.33
39435;BME280;66825;51.880;-0.518;2023-02-15T01:15:19;101600.81;;;15.23;40.55
39435;BME280;66825;51.880;-0.518;2023-02-15T01:17:45;101602.72;;;15.22;40.46
39435;BME280;66825;51.880;-0.518;2023-02-15T01:20:17;101599.16;;;15.22;40.46
39435;BME280;66825;51.880;-0.518;2023-02-15T01:22:43;101559.94;;;15.07;40.29
39435;BME280;66825;51.880;-0.518;2023-02-15T01:25:08;101560.78;;;15.08;40.55
39435;BME280;66825;51.880;-0.518;2023-02-15T01:27:34;101565.22;;;15.19;40.33
39435;BME280;66825;51.880;-0.518;2023-02-15T01:29:59;101470.91;;;14.55;40.53
39435;BME280;66825;51.880;-0.518;2023-02-15T01:32:25;101558.13;;;15.18;40.07
39435;BME280;66825;51.880;-0.518;2023-02-15T01:34:52;101551.53;;;15.09;40.46
39435;BME280;66825;51.880;-0.518;2023-02-15T01:37:17;101559.22;;;15.17;40.40
39435;BME280;66825;51.880;-0.518;2023-02-15T01:39:43;101547.56;;;15.17;40.33
39435;BME280;66825;51.880;-0.518;2023-02-15T01:42:12;101525.63;;;14.96;40.33
39435;BME280;66825;51.880;-0.518;2023-02-15T01:44:55;101525.88;;;14.95;40.33
39435;BME280;66825;51.880;-0.518;2023-02-15T01:52:57;101554.31;;;15.14;40.33
39435;BME280;66825;51.880;-0.518;2023-02-15T01:55:27;101548.06;;;15.14;40.37
39435;BME280;66825;51.880;-0.518;2023-02-15T01:57:54;101549.13;;;15.13;40.20
39435;BME280;66825;51.880;-0.518;2023-02-15T02:00:20;101504.13;;;14.89;40.44
39435;BME280;66825;51.880;-0.518;2023-02-15T02:02:49;101548.59;;;15.11;40.21
39435;BME280;66825;51.880;-0.518;2023-02-15T02:05:16;101554.00;;;15.11;40.34
39435;BME280;66825;51.880;-0.518;2023-02-15T02:07:44;101532.53;;;15.09;40.42
39435;BME280;66825;51.880;-0.518;2023-02-15T02:10:15;101536.34;;;15.08;40.38
39435;BME280;66825;51.880;-0.518;2023-02-15T02:12:42;101532.00;;;15.07;40.13
39435;BME280;66825;51.880;-0.518;2023-02-15T02:15:10;101542.84;;;15.07;40.11
39435;BME280;66825;51.880;-0.518;2023-02-15T02:17:57;101523.84;;;15.07;40.23
39435;BME280;66825;51.880;-0.518;2023-02-15T02:23:21;101516.44;;;14.97;40.03
39435;BME280;66825;51.880;-0.518;2023-02-15T02:31:44;101523.22;;;15.00;40.22
39435;BME280;66825;51.880;-0.518;2023-02-15T02:34:45;101507.50;;;15.02;40.25
39435;BME280;66825;51.880;-0.518;2023-02-15T02:37:50;101512.13;;;15.01;40.05
39435;BME280;66825;51.880;-0.518;2023-02-15T02:40:25;101485.91;;;14.85;40.26
39435;BME280;66825;51.880;-0.518;2023-02-15T02:46:11;101405.44;;;14.41;40.23
39435;BME280;66825;51.880;-0.518;2023-02-15T02:48:40;101441.34;;;14.53;40.10
39435;BME280;66825;51.880;-0.518;2023-02-15T02:51:05;101492.25;;;14.96;40.31
39435;BME280;66825;51.880;-0.518;2023-02-15T02:53:32;101469.84;;;14.78;40.42
39435;BME280;66825;51.880;-0.518;2023-02-15T02:56:06;101490.88;;;14.93;40.36
39435;BME280;66825;51.880;-0.518;2023-02-15T03:01:34;101489.53;;;14.96;40.54
39435;BME280;66825;51.880;-0.518;2023-02-15T03:04:16;101448.91;;;14.73;40.08
39435;BME280;66825;51.880;-0.518;2023-02-15T03:06:52;101474.28;;;14.89;40.21
39435;BME280;66825;51.880;-0.518;2023-02-15T03:09:25;101452.72;;;14.77;40.09
39435;BME280;66825;51.880;-0.518;2023-02-15T03:12:00;101479.19;;;14.92;40.24
39435;BME280;66825;51.880;-0.518;2023-02-15T03:14:27;101476.50;;;14.92;40.07
39435;BME280;66825;51.880;-0.518;2023-02-15T03:16:53;101358.03;;;14.21;40.06
39435;BME280;66825;51.880;-0.518;2023-02-15T03:19:26;101481.06;;;14.92;40.17
39435;BME280;66825;51.880;-0.518;2023-02-15T03:22:10;101474.84;;;14.91;40.10
39435;BME280;66825;51.880;-0.518;2023-02-15T03:24:59;101449.56;;;14.86;40.12
39435;BME280;66825;51.880;-0.518;2023-02-15T03:27:33;101429.91;;;14.73;40.35
39435;BME280;66825;51.880;-0.518;2023-02-15T03:30:02;101433.56;;;14.89;40.22
39435;BME280;66825;51.880;-0.518;2023-02-15T03:32:29;101417.25;;;14.84;40.25
39435;BME280;66825;51.880;-0.518;2023-02-15T03:34:57;101420.28;;;14.88;40.04
39435;BME280;66825;51.880;-0.518;2023-02-15T03:37:29;101435.72;;;14.87;40.19
39435;BME280;66825;51.880;-0.518;2023-02-15T03:40:11;101390.00;;;14.69;39.91
39435;BME280;66825;51.880;-0.518;2023-02-15T03:43:14;101413.22;;;14.87;40.04
39435;BME280;66825;51.880;-0.518;2023-02-15T03:45:45;101416.19;;;14.85;40.15
39435;BME280;66825;51.880;-0.518;2023-02-15T03:48:41;101405.34;;;14.85;39.99
39435;BME280;66825;51.880;-0.518;2023-02-15T03:51:12;101292.34;;;14.09;40.00
39435;BME280;66825;51.880;-0.518;2023-02-15T03:54:00;101395.56;;;14.84;40.04
39435;BME280;66825;51.880;-0.518;2023-02-15T03:56:27;101384.97;;;14.83;40.02
39435;BME280;66825;51.880;-0.518;2023-02-15T03:58:52;101395.81;;;14.83;40.20
39435;BME280;66825;51.880;-0.518;2023-02-15T04:01:59;101384.97;;;14.83;39.88
39435;BME280;66825;51.880;-0.518;2023-02-15T04:04:32;101371.28;;;14.67;40.21
39435;BME280;66825;51.880;-0.518;2023-02-15T04:06:59;101393.34;;;14.81;40.17
39435;BME280;66825;51.880;-0.518;2023-02-15T04:09:24;101385.44;;;14.74;40.08
39435;BME280;66825;51.880;-0.518;2023-02-15T04:12:08;101322.94;;;14.37;39.94
39435;BME280;66825;51.880;-0.518;2023-02-15T04:14:34;101353.53;;;14.59;40.16
39435;BME280;66825;51.880;-0.518;2023-02-15T04:17:18;101400.06;;;14.73;40.24
39435;BME280;66825;51.880;-0.518;2023-02-15T04:19:43;101384.56;;;14.69;39.82
39435;BME280;66825;51.880;-0.518;2023-02-15T04:22:27;101391.16;;;14.78;39.96
39435;BME280;66825;51.880;-0.518;2023-02-15T04:25:11;101400.88;;;14.74;40.24
39435;BME280;66825;51.880;-0.518;2023-02-15T04:27:42;101400.34;;;14.72;40.11
39435;BME280;66825;51.880;-0.518;2023-02-15T04:30:09;101404.16;;;14.76;40.06
39435;BME280;66825;51.880;-0.518;2023-02-15T04:32:35;101383.19;;;14.66;39.79
39435;BME280;66825;51.880;-0.518;2023-02-15T04:35:01;101388.97;;;14.75;40.12
39435;BME280;66825;51.880;-0.518;2023-02-15T04:37:27;101389.78;;;14.75;39.88
39435;BME280;66825;51.880;-0.518;2023-02-15T04:39:53;101385.44;;;14.74;40.03
39435;BME280;66825;51.880;-0.518;2023-02-15T04:42:18;101371.75;;;14.64;39.83
39435;BME280;66825;51.880;-0.518;2023-02-15T04:44:44;101378.63;;;14.72;40.31
39435;BME280;66825;51.880;-0.518;2023-02-15T04:47:09;101354.56;;;14.53;39.97
39435;BME280;66825;51.880;-0.518;2023-02-15T04:49:35;101375.09;;;14.71;39.92
39435;BME280;66825;51.880;-0.518;2023-02-15T04:52:00;101385.94;;;14.71;39.96
39435;BME280;66825;51.880;-0.518;2023-02-15T04:54:26;101377.50;;;14.68;40.12
39435;BME280;66825;51.880;-0.518;2023-02-15T04:56:51;101357.09;;;14.65;40.01
39435;BME280;66825;51.880;-0.518;2023-02-15T04:59:17;101275.81;;;14.10;40.06
39435;BME280;66825;51.880;-0.518;2023-02-15T05:01:43;101369.09;;;14.69;40.01
39435;BME280;66825;51.880;-0.518;2023-02-15T05:04:08;101355.53;;;14.69;39.98
39435;BME280;66825;51.880;-0.518;2023-02-15T05:06:34;101361.72;;;14.65;39.73
39435;BME280;66825;51.880;-0.518;2023-02-15T05:08:59;101357.44;;;14.69;39.90
39435;BME280;66825;51.880;-0.518;2023-02-15T05:11:25;101352.03;;;14.69;39.96
39435;BME280;66825;51.880;-0.518;2023-02-15T05:13:51;101362.06;;;14.68;40.10
39435;BME280;66825;51.880;-0.518;2023-02-15T05:16:17;101345.78;;;14.68;39.93
39435;BME280;66825;51.880;-0.518;2023-02-15T05:18:42;101330.59;;;14.67;40.09
39435;BME280;66825;51.880;-0.518;2023-02-15T05:21:08;101348.72;;;14.67;39.86
39435;BME280;66825;51.880;-0.518;2023-02-15T05:23:34;101306.22;;;14.45;40.00
39435;BME280;66825;51.880;-0.518;2023-02-15T05:25:59;101326.72;;;14.63;40.17
39435;BME280;66825;51.880;-0.518;2023-02-15T05:28:43;101327.28;;;14.65;40.07
39435;BME280;66825;51.880;-0.518;2023-02-15T05:31:14;101327.53;;;14.64;39.81
39435;BME280;66825;51.880;-0.518;2023-02-15T05:33:40;101205.19;;;13.90;39.88
39435;BME280;66825;51.880;-0.518;2023-02-15T05:36:06;101315.03;;;14.57;40.21
39435;BME280;66825;51.880;-0.518;2023-02-15T05:38:32;101332.97;;;14.64;39.78
39435;BME280;66825;51.880;-0.518;2023-02-15T05:40:58;101327.78;;;14.62;40.09
39435;BME280;66825;51.880;-0.518;2023-02-15T05:43:24;101327.78;;;14.62;40.03
39435;BME280;66825;51.880;-0.518;2023-02-15T05:45:52;101326.16;;;14.61;39.82
39435;BME280;66825;51.880;-0.518;2023-02-15T05:48:18;101217.44;;;13.97;39.92
39435;BME280;66825;51.880;-0.518;2023-02-15T05:50:44;101320.75;;;14.61;40.06
39435;BME280;66825;51.880;-0.518;2023-02-15T05:53:10;101322.63;;;14.60;40.11
39435;BME280;66825;51.880;-0.518;2023-02-15T05:55:39;101292.69;;;14.50;39.78
39435;BME280;66825;51.880;-0.518;2023-02-15T05:58:06;101318.28;;;14.59;40.11
39435;BME280;66825;51.880;-0.518;2023-02-15T06:00:31;101294.56;;;14.44;40.08
39435;BME280;66825;51.880;-0.518;2023-02-15T06:02:57;101312.31;;;14.57;40.12
39435;BME280;66825;51.880;-0.518;2023-02-15T06:05:22;101275.00;;;14.37;40.21
39435;BME280;66825;51.880;-0.518;2023-02-15T06:07:48;101300.22;;;14.43;40.10
39435;BME280;66825;51.880;-0.518;2023-02-15T06:10:13;101310.66;;;14.56;39.58
39435;BME280;66825;51.880;-0.518;2023-02-15T06:12:39;101321.50;;;14.56;40.03
39435;BME280;66825;51.880;-0.518;2023-02-15T06:15:05;101316.91;;;14.57;39.76
39435;BME280;66825;51.880;-0.518;2023-02-15T06:17:30;101318.81;;;14.56;40.04
39435;BME280;66825;51.880;-0.518;2023-02-15T06:19:56;101312.53;;;14.56;40.05
39435;BME280;66825;51.880;-0.518;2023-02-15T06:22:21;101320.69;;;14.56;40.08
39435;BME280;66825;51.880;-0.518;2023-02-15T06:24:47;101314.44;;;14.55;39.81
39435;BME280;66825;51.880;-0.518;2023-02-15T06:27:12;101319.88;;;14.55;40.13
39435;BME280;66825;51.880;-0.518;2023-02-15T06:29:38;101319.03;;;14.55;39.93
39435;BME280;66825;51.880;-0.518;2023-02-15T06:32:04;101306.03;;;14.52;40.08
39435;BME280;66825;51.880;-0.518;2023-02-15T06:34:29;101305.75;;;14.53;39.88
39435;BME280;66825;51.880;-0.518;2023-02-15T06:36:55;101276.81;;;14.32;40.27
39435;BME280;66825;51.880;-0.518;2023-02-15T06:39:20;101306.81;;;14.52;40.12
39435;BME280;66825;51.880;-0.518;2023-02-15T06:41:46;101286.16;;;14.46;40.19
39435;BME280;66825;51.880;-0.518;2023-02-15T06:44:11;101309.53;;;14.52;40.04
39435;BME280;66825;51.880;-0.518;2023-02-15T06:46:37;101209.22;;;13.87;40.25
39435;BME280;66825;51.880;-0.518;2023-02-15T06:49:02;101281.97;;;14.33;40.09
39435;BME280;66825;51.880;-0.518;2023-02-15T06:51:28;101273.00;;;14.27;39.87
39435;BME280;66825;51.880;-0.518;2023-02-15T06:53:53;101241.31;;;14.01;40.00
39435;BME280;66825;51.880;-0.518;2023-02-15T06:56:18;101271.53;;;14.14;40.12
39435;BME280;66825;51.880;-0.518;2023-02-15T06:58:44;101333.38;;;14.50;40.02
39435;BME280;66825;51.880;-0.518;2023-02-15T07:01:15;101318.66;;;14.41;40.14
39435;BME280;66825;51.880;-0.518;2023-02-15T07:03:40;101328.75;;;14.45;40.18
39435;BME280;66825;51.880;-0.518;2023-02-15T07:06:06;101320.53;;;14.40;40.17
39435;BME280;66825;51.880;-0.518;2023-02-15T07:08:34;101330.13;;;14.48;39.69
39435;BME280;66825;51.880;-0.518;2023-02-15T07:11:00;101338.50;;;14.46;39.96
39435;BME280;66825;51.880;-0.518;2023-02-15T07:13:46;101334.41;;;14.44;39.90
39435;BME280;66825;51.880;-0.518;2023-02-15T07:16:12;101320.41;;;14.25;40.04
39435;BME280;66825;51.880;-0.518;2023-02-15T07:18:38;101361.00;;;14.47;39.99
39435;BME280;66825;51.880;-0.518;2023-02-15T07:21:05;101359.38;;;14.46;39.81
39435;BME280;66825;51.880;-0.518;2023-02-15T07:23:36;101363.16;;;14.45;40.08
39435;BME280;66825;51.880;-0.518;2023-02-15T07:26:03;101352.84;;;14.42;39.82
39435;BME280;66825;51.880;-0.518;2023-02-15T07:28:29;101374.84;;;14.45;40.29
39435;BME280;66825;51.880;-0.518;2023-02-15T07:30:54;101364.50;;;14.42;40.00
39435;BME280;66825;51.880;-0.518;2023-02-15T07:33:20;101369.41;;;14.45;39.91
39435;BME280;66825;51.880;-0.518;2023-02-15T07:35:54;101367.50;;;14.46;39.99
39435;BME280;66825;51.880;-0.518;2023-02-15T07:38:20;101326.13;;;14.28;39.95
39435;BME280;66825;51.880;-0.518;2023-02-15T07:40:46;101350.66;;;14.44;40.12
39435;BME280;66825;51.880;-0.518;2023-02-15T07:43:12;101365.66;;;14.52;40.38
39435;BME280;66825;51.880;-0.518;2023-02-15T07:45:38;101273.59;;;14.02;40.25
39435;BME280;66825;51.880;-0.518;2023-02-15T07:48:05;101352.72;;;14.59;40.35
39435;BME280;66825;51.880;-0.518;2023-02-15T07:50:31;101318.44;;;14.48;40.26
39435;BME280;66825;51.880;-0.518;2023-02-15T07:52:57;101351.69;;;14.65;40.05
39435;BME280;66825;51.880;-0.518;2023-02-15T07:55:23;101340.09;;;14.70;40.23
39435;BME280;66825;51.880;-0.518;2023-02-15T07:57:50;101345.28;;;14.76;40.16
39435;BME280;66825;51.880;-0.518;2023-02-15T08:00:19;101351.56;;;14.82;40.13
39435;BME280;66825;51.880;-0.518;2023-02-15T08:02:54;101362.47;;;14.87;40.12
39435;BME280;66825;51.880;-0.518;2023-02-15T08:05:44;101354.13;;;14.94;40.02
39435;BME280;66825;51.880;-0.518;2023-02-15T08:08:10;101349.84;;;15.03;40.04
39435;BME280;66825;51.880;-0.518;2023-02-15T08:11:06;101348.50;;;15.06;40.02
39435;BME280;66825;51.880;-0.518;2023-02-15T08:13:57;101367.63;;;15.21;40.23
39435;BME280;66825;51.880;-0.518;2023-02-15T08:21:49;101341.94;;;15.45;39.87
39435;BME280;66825;51.880;-0.518;2023-02-15T08:24:17;101339.81;;;15.52;39.83
39435;BME280;66825;51.880;-0.518;2023-02-15T08:26:43;101267.09;;;15.11;39.56
39435;BME280;66825;51.880;-0.518;2023-02-15T08:29:18;101352.09;;;15.65;39.74
39435;BME280;66825;51.880;-0.518;2023-02-15T08:31:44;101335.00;;;15.69;39.40
39435;BME280;66825;51.880;-0.518;2023-02-15T08:34:12;101342.66;;;15.78;39.63
39435;BME280;66825;51.880;-0.518;2023-02-15T08:36:38;101344.31;;;15.84;39.53
39435;BME280;66825;51.880;-0.518;2023-02-15T08:39:05;101345.16;;;15.90;39.44
39435;BME280;66825;51.880;-0.518;2023-02-15T08:41:33;101343.25;;;15.95;39.16
39435;BME280;66825;51.880;-0.518;2023-02-15T08:44:01;101343.28;;;16.00;39.29
39435;BME280;66825;51.880;-0.518;2023-02-15T08:46:30;101337.88;;;16.06;39.05
39435;BME280;66825;51.880;-0.518;2023-02-15T08:48:56;101312.00;;;15.93;39.32
39435;BME280;66825;51.880;-0.518;2023-02-15T08:51:23;101313.41;;;16.06;39.25
39435;BME280;66825;51.880;-0.518;2023-02-15T08:53:55;101216.78;;;15.51;39.24
39435;BME280;66825;51.880;-0.518;2023-02-15T08:56:23;101316.16;;;16.26;38.96
39435;BME280;66825;51.880;-0.518;2023-02-15T08:58:49;101295.72;;;16.13;38.98
39435;BME280;66825;51.880;-0.518;2023-02-15T09:01:17;101301.19;;;16.29;38.78
39435;BME280;66825;51.880;-0.518;2023-02-15T09:03:44;101322.41;;;16.42;39.16
39435;BME280;66825;51.880;-0.518;2023-02-15T09:06:11;101208.97;;;15.81;38.95
39435;BME280;66825;51.880;-0.518;2023-02-15T09:08:37;101300.13;;;16.45;39.05
39435;BME280;66825;51.880;-0.518;2023-02-15T09:11:19;101201.13;;;15.90;38.73
39435;BME280;66825;51.880;-0.518;2023-02-15T09:14:00;101307.44;;;16.60;38.80
39435;BME280;66825;51.880;-0.518;2023-02-15T09:16:30;101299.31;;;16.65;39.03
39435;BME280;66825;51.880;-0.518;2023-02-15T09:18:57;101273.47;;;16.52;39.18
39435;BME280;66825;51.880;-0.518;2023-02-15T09:21:24;101295.22;;;16.73;38.98
39435;BME280;66825;51.880;-0.518;2023-02-15T09:23:54;101285.41;;;16.72;39.25
39435;BME280;66825;51.880;-0.518;2023-02-15T09:26:22;101294.13;;;16.79;39.30
39435;BME280;66825;51.880;-0.518;2023-02-15T09:28:52;101296.28;;;16.82;38.97
39435;BME280;66825;51.880;-0.518;2023-02-15T09:31:20;101292.50;;;16.83;39.18
39435;BME280;66825;51.880;-0.518;2023-02-15T09:33:47;101293.00;;;16.86;39.34
39435;BME280;66825;51.880;-0.518;2023-02-15T09:38:46;101281.06;;;16.81;40.24
39435;BME280;66825;51.880;-0.518;2023-02-15T09:52:33;101303.91;;;17.01;39.58
39435;BME280;66825;51.880;-0.518;2023-02-15T10:03:22;101286.47;;;17.02;40.55
39435;BME280;66825;51.880;-0.518;2023-02-15T10:06:11;101318.84;;;17.19;40.21
39435;BME280;66825;51.880;-0.518;2023-02-15T10:11:25;101297.06;;;17.24;40.20
39435;BME280;66825;51.880;-0.518;2023-02-15T10:28:19;101297.53;;;17.47;39.65
39435;BME280;66825;51.880;-0.518;2023-02-15T10:30:50;101295.88;;;17.51;39.48
39435;BME280;66825;51.880;-0.518;2023-02-15T10:38:48;101286.03;;;17.60;40.08
39435;BME280;66825;51.880;-0.518;2023-02-15T10:41:37;101294.16;;;17.66;39.99
39435;BME280;66825;51.880;-0.518;2023-02-15T10:44:28;101274.78;;;17.72;39.82
39435;BME280;66825;51.880;-0.518;2023-02-15T10:58:11;101234.09;;;17.86;39.29
39435;BME280;66825;51.880;-0.518;2023-02-15T11:00:45;101238.13;;;17.94;39.40
39435;BME280;66825;51.880;-0.518;2023-02-15T11:03:30;101157.47;;;17.48;39.46
39435;BME280;66825;51.880;-0.518;2023-02-15T11:06:04;101249.81;;;18.00;39.33
39435;BME280;66825;51.880;-0.518;2023-02-15T11:08:34;101245.75;;;18.02;39.33
39435;BME280;66825;51.880;-0.518;2023-02-15T11:11:09;101227.81;;;17.86;39.28
39435;BME280;66825;51.880;-0.518;2023-02-15T11:13:39;101260.13;;;18.08;39.29
39435;BME280;66825;51.880;-0.518;2023-02-15T11:16:08;101258.50;;;18.12;39.23
39435;BME280;66825;51.880;-0.518;2023-02-15T11:18:41;101260.13;;;18.13;39.26
39435;BME280;66825;51.880;-0.518;2023-02-15T11:23:42;101270.97;;;18.18;39.14
39435;BME280;66825;51.880;-0.518;2023-02-15T11:31:55;101227.84;;;18.25;39.23
39435;BME280;66825;51.880;-0.518;2023-02-15T11:34:24;101146.13;;;17.75;39.14
39435;BME280;66825;51.880;-0.518;2023-02-15T11:36:54;101220.94;;;18.33;39.13
39435;BME280;66825;51.880;-0.518;2023-02-15T11:39:24;101224.19;;;18.35;39.17
39435;BME280;66825;51.880;-0.518;2023-02-15T11:41:57;101216.53;;;18.37;39.39
39435;BME280;66825;51.880;-0.518;2023-02-15T11:44:29;101207.78;;;18.40;39.23
39435;BME280;66825;51.880;-0.518;2023-02-15T11:46:58;101193.91;;;18.37;39.17
39435;BME280;66825;51.880;-0.518;2023-02-15T11:49:33;101205.81;;;18.46;39.16
39435;BME280;66825;51.880;-0.518;2023-02-15T11:52:02;101203.63;;;18.48;38.92
39435;BME280;66825;51.880;-0.518;2023-02-15T11:54:35;101126.63;;;17.98;39.21
39435;BME280;66825;51.880;-0.518;2023-02-15T11:57:14;101197.56;;;18.51;39.03
39435;BME280;66825;51.880;-0.518;2023-02-15T11:59:46;101204.41;;;18.54;39.05
39435;BME280;66825;51.880;-0.518;2023-02-15T12:02:19;101117.88;;;18.01;39.12
39435;BME280;66825;51.880;-0.518;2023-02-15T12:04:58;101205.44;;;18.58;39.03
39435;BME280;66825;51.880;-0.518;2023-02-15T12:07:36;101208.97;;;18.58;39.13
39435;BME280;66825;51.880;-0.518;2023-02-15T12:10:23;101196.94;;;18.60;39.32
39435;BME280;66825;51.880;-0.518;2023-02-15T12:13:11;101106.63;;;18.07;38.91
39435;BME280;66825;51.880;-0.518;2023-02-15T12:15:37;101190.38;;;18.61;39.06
39435;BME280;66825;51.880;-0.518;2023-02-15T12:18:18;101086.28;;;17.94;38.88
39435;BME280;66825;51.880;-0.518;2023-02-15T12:20:44;101203.50;;;18.58;39.22
39435;BME280;66825;51.880;-0.518;2023-02-15T12:23:14;101193.97;;;18.56;39.43
39435;BME280;66825;51.880;-0.518;2023-02-15T12:25:49;101200.78;;;18.58;39.34
39435;BME280;66825;51.880;-0.518;2023-02-15T12:28:43;101197.78;;;18.60;39.44
39435;BME280;66825;51.880;-0.518;2023-02-15T12:31:44;101097.19;;;17.94;39.08
39435;BME280;66825;51.880;-0.518;2023-02-15T12:34:29;101188.03;;;18.54;39.43
39435;BME280;66825;51.880;-0.518;2023-02-15T12:36:59;101179.88;;;18.49;38.94
39435;BME280;66825;51.880;-0.518;2023-02-15T12:39:31;101201.00;;;18.62;38.95
39435;BME280;66825;51.880;-0.518;2023-02-15T12:42:00;101210.59;;;18.60;39.13
39435;BME280;66825;51.880;-0.518;2023-02-15T12:44:36;101195.63;;;18.57;39.84
39435;BME280;66825;51.880;-0.518;2023-02-15T12:49:35;101186.88;;;18.60;39.47
39435;BME280;66825;51.880;-0.518;2023-02-15T12:54:46;101165.69;;;18.47;39.93
39435;BME280;66825;51.880;-0.518;2023-02-15T12:59:50;101180.56;;;18.60;39.33
39435;BME280;66825;51.880;-0.518;2023-02-15T13:02:23;101112.84;;;18.13;39.79
39435;BME280;66825;51.880;-0.518;2023-02-15T13:04:49;101168.63;;;18.55;39.73
39435;BME280;66825;51.880;-0.518;2023-02-15T13:07:15;101168.09;;;18.53;39.85
39435;BME280;66825;51.880;-0.518;2023-02-15T13:09:41;101159.44;;;18.46;39.54
39435;BME280;66825;51.880;-0.518;2023-02-15T13:12:24;101170.59;;;18.50;39.44
39435;BME280;66825;51.880;-0.518;2023-02-15T13:14:53;101150.53;;;18.35;39.50
39435;BME280;66825;51.880;-0.518;2023-02-15T13:17:40;101170.06;;;18.48;39.51
39435;BME280;66825;51.880;-0.518;2023-02-15T13:20:20;101127.25;;;18.19;39.86
39435;BME280;66825;51.880;-0.518;2023-02-15T13:22:50;101149.22;;;18.33;39.86
39435;BME280;66825;51.880;-0.518;2023-02-15T13:25:20;101170.66;;;18.45;39.84
39435;BME280;66825;51.880;-0.518;2023-02-15T13:27:51;101173.38;;;18.45;39.58
39435;BME280;66825;51.880;-0.518;2023-02-15T13:30:26;101160.00;;;18.43;39.63
39435;BME280;66825;51.880;-0.518;2023-02-15T13:33:00;101158.41;;;18.42;39.53
39435;BME280;66825;51.880;-0.518;2023-02-15T13:35:33;101167.09;;;18.44;39.33
39435;BME280;66825;51.880;-0.518;2023-02-15T13:38:30;101148.28;;;18.42;39.48
39435;BME280;66825;51.880;-0.518;2023-02-15T13:41:03;101123.88;;;18.27;39.61
39435;BME280;66825;51.880;-0.518;2023-02-15T13:46:52;101120.59;;;18.30;39.71
39435;BME280;66825;51.880;-0.518;2023-02-15T13:49:39;101130.28;;;18.41;39.85
39435;BME280;66825;51.880;-0.518;2023-02-15T13:55:02;101130.28;;;18.41;40.14
39435;BME280;66825;51.880;-0.518;2023-02-15T14:06:24;101115.53;;;18.42;39.84
39435;BME280;66825;51.880;-0.518;2023-02-15T14:14:45;101106.56;;;18.42;39.86
39435;BME280;66825;51.880;-0.518;2023-02-15T14:19:54;100993.63;;;17.65;39.91
39435;BME280;66825;51.880;-0.518;2023-02-15T14:25:05;101113.69;;;18.38;39.97
39435;BME280;66825;51.880;-0.518;2023-02-15T14:28:03;101121.06;;;18.37;39.97
39435;BME280;66825;51.880;-0.518;2023-02-15T14:30:36;101119.13;;;18.38;39.96
39435;BME280;66825;51.880;-0.518;2023-02-15T14:35:30;101119.13;;;18.38;40.12
39435;BME280;66825;51.880;-0.518;2023-02-15T14:40:45;101109.56;;;18.40;39.90
39435;BME280;66825;51.880;-0.518;2023-02-15T14:49:16;101102.66;;;18.24;39.94
39435;BME280;66825;51.880;-0.518;2023-02-15T14:59:52;101009.38;;;17.68;39.88
39435;BME280;66825;51.880;-0.518;2023-02-15T15:02:47;101126.00;;;18.35;40.19
39435;BME280;66825;51.880;-0.518;2023-02-15T15:05:21;101119.28;;;18.22;40.01
39435;BME280;66825;51.880;-0.518;2023-02-15T15:07:54;100927.59;;;17.14;39.98
39435;BME280;66825;51.880;-0.518;2023-02-15T15:12:55;101132.00;;;18.32;39.98
39435;BME280;66825;51.880;-0.518;2023-02-15T15:25:42;101131.53;;;18.25;40.07
39435;BME280;66825;51.880;-0.518;2023-02-15T15:28:08;101114.44;;;18.19;40.16
39435;BME280;66825;51.880;-0.518;2023-02-15T15:49:36;101116.31;;;18.19;40.58
39435;BME280;66825;51.880;-0.518;2023-02-15T15:52:15;101122.63;;;18.14;40.39
39435;BME280;66825;51.880;-0.518;2023-02-15T15:54:42;101120.97;;;18.18;40.33
39435;BME280;66825;51.880;-0.518;2023-02-15T15:57:38;101091.38;;;18.06;40.29